Buoy 17652

sailwx.info

Track history (hours):
 
Tides and Currents Weather Stations Pressure Air Temp Water Temp Dewpoint Dewpoint Depression Visibility Wind Speed Wind Dir Waves Ship Positions

Drifting buoy 17652

Last reported at 2017-Jul-21 14:00 UTC. Time now 2017-Jul-21 16:52 UTC.
Position S 38°31' E 060°47'.

Barometer 1005.0 mb
Water temperature 15.1 ° C

Date/timePositionNaut miles runAvg speedWind from/ knotsBaromVisibWave heightAir tempDewpointWater temp
2017-Jul-21 14:00S 38°31' E 060°47'1 0.9 1005.0 15.1
2017-Jul-21 13:00S 38°31' E 060°46'1 0.8 1004.3 15.1
2017-Jul-21 12:00S 38°31' E 060°45'5 5.3 1003.4 15.1
2017-Jul-21 11:00S 38°29' E 060°38'0 0.1 1003.3 15.1
2017-Jul-21 06:00S 38°29' E 060°38'0 0.5 1002.3 15.1
2017-Jul-21 05:00S 38°29' E 060°37'3 3.1 1001.5 15.1
2017-Jul-21 04:00S 38°28' E 060°34'0 0.0 1001.3 15.1
2017-Jul-21 03:00S 38°28' E 060°34'4 1.9 1001.0 15.2
2017-Jul-21 01:00S 38°25' E 060°31'1 1.3 1001.3 15.1
2017-Jul-21 00:00S 38°26' E 060°31'1 1.3 1002.1 15.1
2017-Jul-20 23:00S 38°25' E 060°31'2 1.9 1003.7 15.1
2017-Jul-20 22:00S 38°24' E 060°29'2 1.0 1004.8 15.1
2017-Jul-20 20:00S 38°22' E 060°28'1 0.8 1007.0 15.1
2017-Jul-20 19:00S 38°22' E 060°28'2 0.9 1008.5 15.0
2017-Jul-20 17:00S 38°20' E 060°26'0 0.0 1010.5 15.0
2017-Jul-20 16:00S 38°20' E 060°26'1 0.8 1011.1 15.0
2017-Jul-20 15:00S 38°20' E 060°26'2 1.9 1011.5 15.1
2017-Jul-20 14:00S 38°19' E 060°24'2 1.5 1012.2 15.1
2017-Jul-20 13:00S 38°17' E 060°25'5 2.6 1012.6 15.1
2017-Jul-20 11:00S 38°15' E 060°19'1 0.1 1013.4 15.1
2017-Jul-20 06:00S 38°16' E 060°19'0 0.0 1015.8 15.1
2017-Jul-20 05:00S 38°16' E 060°19'2 1.5 1015.5 15.1
2017-Jul-20 04:00S 38°16' E 060°17'1 1.1 1015.3 15.0
2017-Jul-20 03:00S 38°17' E 060°19'2 1.9 1014.8 15.0
2017-Jul-20 02:00S 38°17' E 060°16'2 1.5 1014.3 15.1
2017-Jul-20 01:00S 38°17' E 060°14'0 0.0 1013.5 15.1
2017-Jul-19 23:00S 38°17' E 060°14'1 0.9 1012.8 15.2
2017-Jul-19 22:00S 38°17' E 060°13'3 1.0 1012.0 15.2
2017-Jul-19 19:00S 38°18' E 060°10'0 0.5 1010.0 15.2
2017-Jul-19 18:00S 38°18' E 060°09'2 1.5 1009.5 15.2
2017-Jul-19 17:00S 38°19' E 060°07'1 1.4 1009.0 15.2
2017-Jul-19 16:00S 38°19' E 060°05'1 0.8 1008.6 15.2
2017-Jul-19 15:00S 38°18' E 060°05'1 1.4 1008.9 15.3
2017-Jul-19 14:00S 38°18' E 060°03'10 5.0 1008.1 15.3
2017-Jul-19 12:00S 38°14' E 059°51'0 0.0 1008.3 15.3
2017-Jul-19 11:00S 38°14' E 059°51'0 0.0 1008.7 15.4
2017-Jul-19 10:00S 38°14' E 059°51'0 0.0 1009.2 15.4
2017-Jul-19 06:00S 38°14' E 059°51'0 0.0 1013.3 15.3
2017-Jul-19 05:00S 38°14' E 059°51'0 0.0 1013.7 15.3
2017-Jul-19 04:00S 38°14' E 059°51'0 0.5 1013.8 15.3
2017-Jul-19 03:00S 38°14' E 059°50'3 2.9 1013.7 15.3
2017-Jul-19 02:00S 38°14' E 059°47'0 0.0 1013.8 15.3
2017-Jul-19 01:00S 38°14' E 059°47'0 0.2 1013.8 15.3
2017-Jul-18 23:00S 38°14' E 059°46'0 0.0 1014.4 15.3
2017-Jul-18 22:00S 38°14' E 059°46'3 3.1 1014.9 15.3
2017-Jul-18 21:00S 38°13' E 059°43'0 0.0 1014.9 15.3
2017-Jul-18 19:00S 38°13' E 059°43'0 0.5 1014.9 15.3
2017-Jul-18 18:00S 38°13' E 059°42'1 0.8 1015.2 15.3
2017-Jul-18 17:00S 38°12' E 059°41'2 0.9 1015.4 15.3
2017-Jul-18 15:00S 38°13' E 059°40'1 0.8 1015.2 15.3
2017-Jul-18 14:00S 38°14' E 059°39'2 2.4 1015.0 15.3
2017-Jul-18 13:00S 38°14' E 059°36'4 3.8 1014.8 15.3
2017-Jul-18 12:00S 38°13' E 059°31'0 0.0 1014.4 15.3
2017-Jul-18 11:00S 38°13' E 059°31'6 5.7 1014.4 15.3
2017-Jul-18 10:00S 38°11' E 059°25'0 0.0 1013.9 15.3
2017-Jul-18 09:00S 38°11' E 059°25'0 0.2 1014.3 15.3
2017-Jul-18 06:00S 38°11' E 059°25'0 0.0 1015.7 15.2
2017-Jul-18 05:00S 38°11' E 059°25'2 2.2 1015.5 15.2
2017-Jul-18 04:00S 38°10' E 059°23'1 0.4 1015.1 15.2
2017-Jul-18 02:00S 38°09' E 059°22'1 0.8 1014.1 15.2
2017-Jul-18 01:00S 38°08' E 059°22'0 0.0 1014.1 15.2
2017-Jul-18 00:00S 38°08' E 059°22'0 0.0 1014.4 15.2
2017-Jul-17 23:00S 38°08' E 059°22'3 3.3 1014.0 15.2
2017-Jul-17 22:00S 38°08' E 059°17'0 0.0 1013.4 15.2
2017-Jul-17 18:00S 38°08' E 059°17'0 0.5 1011.7 15.2
2017-Jul-17 17:00S 38°08' E 059°18'0 0.5 1011.1 15.2
2017-Jul-17 16:00S 38°08' E 059°17'1 1.1 1011.2 15.2
2017-Jul-17 15:00S 38°08' E 059°16'0 0.0 1010.7 15.2
2017-Jul-17 14:00S 38°08' E 059°16'0 0.5 1009.7 15.2
2017-Jul-17 13:00S 38°08' E 059°16'2 1.5 1008.5 15.2
2017-Jul-17 12:00S 38°07' E 059°14'0 0.0 1007.8 15.2
2017-Jul-17 11:00S 38°07' E 059°14'0 0.0 1006.8 15.2
2017-Jul-17 10:00S 38°07' E 059°14'4 0.7 1006.6 15.2
2017-Jul-17 05:00S 38°04' E 059°11'0 0.0 1004.8 15.2
2017-Jul-17 03:00S 38°04' E 059°11'1 0.8 1005.1 15.2
2017-Jul-17 02:00S 38°05' E 059°11'1 0.9 1004.9 15.3
2017-Jul-17 01:00S 38°05' E 059°10'0 0.0 1005.0 15.3
2017-Jul-17 00:00S 38°05' E 059°10'1 1.1 1005.6 15.3
2017-Jul-16 23:00S 38°04' E 059°08'0 0.0 1007.2 15.3
2017-Jul-16 22:00S 38°04' E 059°08'0 0.0 1006.9 15.3
2017-Jul-16 21:00S 38°04' E 059°08'4 1.4 1007.1 15.3
2017-Jul-16 18:00S 38°01' E 059°05'3 3.3 1009.6 15.3
2017-Jul-16 17:00S 37°58' E 059°03'2 0.8 1011.0 15.3
2017-Jul-16 15:00S 37°57' E 059°02'2 1.8 1012.5 15.3
2017-Jul-16 14:00S 37°55' E 059°02'2 1.5 1013.7 15.3
2017-Jul-16 13:00S 37°54' E 059°01'0 0.5 1015.3 15.3
2017-Jul-16 12:00S 37°54' E 059°01'2 1.9 1015.5 15.3
2017-Jul-16 11:00S 37°52' E 059°01'4 0.8 1017.2 15.3
2017-Jul-16 06:00S 37°49' E 059°03'1 0.4 1023.4 15.3
2017-Jul-16 04:00S 37°49' E 059°02'1 0.6 1024.1 15.2
2017-Jul-16 03:00S 37°49' E 059°02'0 0.0 1024.1 15.2
2017-Jul-16 02:00S 37°49' E 059°02'0 0.5 1024.1 15.2
2017-Jul-16 01:00S 37°49' E 059°02'0 0.0 1024.2 15.2
2017-Jul-16 00:00S 37°49' E 059°02'1 0.9 1025.0 15.2
2017-Jul-15 23:00S 37°49' E 059°01'0 0.0 1025.5 15.2
2017-Jul-15 22:00S 37°49' E 059°01'0 0.0 1025.6 15.2
2017-Jul-15 21:00S 37°49' E 059°01'3 0.7 1025.8 15.2
2017-Jul-15 17:00S 37°46' E 058°59'1 0.9 1025.4 15.2
2017-Jul-15 16:00S 37°46' E 059°00'1 1.3 1025.0 15.3
2017-Jul-15 15:00S 37°45' E 058°59'0 0.5 1024.7 15.3
2017-Jul-15 14:00S 37°45' E 059°00'1 0.6 1024.0 15.3
2017-Jul-15 12:00S 37°46' E 059°01'4 3.7 1022.4 15.3
2017-Jul-15 11:00S 37°49' E 059°00'3 3.1 1021.4 15.3
2017-Jul-15 10:00S 37°46' E 059°01'4 1.1 1020.5 15.4
2017-Jul-15 06:00S 37°50' E 059°00'3 1.0 1017.7 15.3
2017-Jul-15 03:00S 37°51' E 058°56'0 0.5 1013.3 15.3
2017-Jul-15 02:00S 37°51' E 058°56'1 1.1 1012.9 15.3
2017-Jul-15 01:00S 37°50' E 058°55'2 2.0 1012.2 15.3
2017-Jul-15 00:00S 37°50' E 058°52'0 0.0 1012.2 15.3
2017-Jul-14 23:00S 37°50' E 058°52'0 0.0 1012.4 15.3
2017-Jul-14 22:00S 37°50' E 058°52'0 0.0 1012.5 15.3
2017-Jul-14 21:00S 37°50' E 058°52'2 0.8 1012.6 15.3
2017-Jul-14 19:00S 37°49' E 058°51'1 0.3 1012.4 15.3
2017-Jul-14 15:00S 37°50' E 058°51'1 1.2 1010.1 15.3
2017-Jul-14 14:00S 37°51' E 058°51'1 0.5 1008.8 15.3
2017-Jul-14 12:00S 37°51' E 058°52'7 7.1 1006.2 15.3
2017-Jul-14 11:00S 37°55' E 058°44'5 4.9 1004.2 15.3
2017-Jul-14 10:00S 37°52' E 058°50'5 1.2 1002.8 15.3
2017-Jul-14 06:00S 37°55' E 058°44'2 1.5 999.0 15.4
2017-Jul-14 05:00S 37°53' E 058°43'1 0.6 1000.0 15.3
2017-Jul-14 04:00S 37°53' E 058°43'1 0.9 1000.4 15.3
2017-Jul-14 03:00S 37°53' E 058°42'0 0.5 1001.0 15.3
2017-Jul-14 02:00S 37°53' E 058°43'3 2.6 1001.5 15.3
2017-Jul-14 01:00S 37°51' E 058°40'0 0.0 1002.3 15.3
2017-Jul-14 00:00S 37°51' E 058°40'0 0.2 1003.1 15.4
2017-Jul-13 22:00S 37°51' E 058°41'1 0.4 1004.6 15.4
2017-Jul-13 19:00S 37°50' E 058°40'0 0.0 1005.8 15.4
2017-Jul-13 18:00S 37°50' E 058°40'0 0.5 1006.2 15.4
2017-Jul-13 17:00S 37°50' E 058°40'0 0.5 1006.5 15.4
2017-Jul-13 16:00S 37°50' E 058°40'0 0.0 1006.8 15.4
2017-Jul-13 15:00S 37°50' E 058°40'0 0.0 1007.0 15.4
2017-Jul-13 14:00S 37°50' E 058°40'2 1.9 1007.1 15.5
2017-Jul-13 13:00S 37°51' E 058°38'0 0.0 1007.1 15.5
2017-Jul-13 12:00S 37°51' E 058°38'2 2.4 1007.3 15.5
2017-Jul-13 11:00S 37°50' E 058°35'2 2.4 1007.2 15.5
2017-Jul-13 10:00S 37°51' E 058°38'2 0.6 1007.0 15.6
2017-Jul-13 06:00S 37°50' E 058°35'0 0.5 1008.4 15.5
2017-Jul-13 05:00S 37°50' E 058°35'1 0.8 1007.8 15.5
2017-Jul-13 04:00S 37°51' E 058°34'1 0.8 1007.2 15.4
2017-Jul-13 03:00S 37°50' E 058°35'1 1.2 1006.2 15.4
2017-Jul-13 02:00S 37°52' E 058°35'0 0.0 1005.3 15.4
2017-Jul-13 01:00S 37°52' E 058°35'0 0.0 1004.4 15.4
2017-Jul-13 00:00S 37°52' E 058°35'1 1.1 1003.5 15.4
2017-Jul-12 23:00S 37°52' E 058°34'0 0.0 1002.9 15.4
2017-Jul-12 22:00S 37°52' E 058°34'6 6.1 1001.9 15.3
2017-Jul-12 21:00S 37°58' E 058°32'0 0.0 1001.2 15.3
2017-Jul-12 20:00S 37°58' E 058°32'0 0.0 1000.5 15.3
2017-Jul-12 18:00S 37°58' E 058°32'1 0.6 998.8 15.3
2017-Jul-12 17:00S 37°59' E 058°32'2 0.9 998.0 15.3
2017-Jul-12 15:00S 38°00' E 058°31'4 1.8 996.6 15.4
2017-Jul-12 13:00S 38°03' E 058°28'0 0.0 994.9 15.4
2017-Jul-12 12:00S 38°03' E 058°28'1 1.1 993.7 15.5
2017-Jul-12 11:00S 38°02' E 058°27'2 0.3 992.2 15.5
2017-Jul-12 06:00S 38°02' E 058°25'0 0.5 998.2 15.5
2017-Jul-12 05:00S 38°02' E 058°25'1 0.8 999.6 15.4
2017-Jul-12 04:00S 38°02' E 058°25'0 0.0 1000.8 15.4
2017-Jul-12 03:00S 38°02' E 058°25'1 0.4 1001.8 15.4
2017-Jul-12 01:00S 38°03' E 058°25'1 0.3 1003.7 15.4
2017-Jul-11 23:00S 38°04' E 058°25'1 0.8 1005.7 15.4
2017-Jul-11 22:00S 38°04' E 058°24'2 0.5 1006.5 15.4
2017-Jul-11 19:00S 38°05' E 058°22'0 0.0 1007.9 15.5
2017-Jul-11 18:00S 38°05' E 058°22'0 0.5 1008.1 15.5
2017-Jul-11 17:00S 38°05' E 058°22'0 0.5 1008.3 15.5
2017-Jul-11 16:00S 38°05' E 058°22'0 0.5 1008.5 15.5
2017-Jul-11 15:00S 38°05' E 058°22'1 0.9 1008.1 15.5
2017-Jul-11 14:00S 38°05' E 058°23'   1007.9 15.5
Track history (hours):
 
Tides and Currents Weather Stations Pressure Air Temp Water Temp Dewpoint Dewpoint Depression Visibility Wind Speed Wind Dir Waves Ship Positions

Drifting buoy 17652

Last reported at 2017-Jul-21 14:00 UTC. Time now 2017-Jul-21 16:52 UTC.
Position S 38°31' E 060°47'.

Barometer 1005.0 mb
Water temperature 15.1 ° C

Date/timePositionNaut miles runAvg speedWind from/ knotsBaromVisibWave heightAir tempDewpointWater temp
2017-Jul-21 14:00S 38°31' E 060°47'1 0.9 1005.0 15.1
2017-Jul-21 13:00S 38°31' E 060°46'1 0.8 1004.3 15.1
2017-Jul-21 12:00S 38°31' E 060°45'5 5.3 1003.4 15.1
2017-Jul-21 11:00S 38°29' E 060°38'0 0.1 1003.3 15.1
2017-Jul-21 06:00S 38°29' E 060°38'0 0.5 1002.3 15.1
2017-Jul-21 05:00S 38°29' E 060°37'3 3.1 1001.5 15.1
2017-Jul-21 04:00S 38°28' E 060°34'0 0.0 1001.3 15.1
2017-Jul-21 03:00S 38°28' E 060°34'4 1.9 1001.0 15.2
2017-Jul-21 01:00S 38°25' E 060°31'1 1.3 1001.3 15.1
2017-Jul-21 00:00S 38°26' E 060°31'1 1.3 1002.1 15.1
2017-Jul-20 23:00S 38°25' E 060°31'2 1.9 1003.7 15.1
2017-Jul-20 22:00S 38°24' E 060°29'2 1.0 1004.8 15.1
2017-Jul-20 20:00S 38°22' E 060°28'1 0.8 1007.0 15.1
2017-Jul-20 19:00S 38°22' E 060°28'2 0.9 1008.5 15.0
2017-Jul-20 17:00S 38°20' E 060°26'0 0.0 1010.5 15.0
2017-Jul-20 16:00S 38°20' E 060°26'1 0.8 1011.1 15.0
2017-Jul-20 15:00S 38°20' E 060°26'2 1.9 1011.5 15.1
2017-Jul-20 14:00S 38°19' E 060°24'2 1.5 1012.2 15.1
2017-Jul-20 13:00S 38°17' E 060°25'5 2.6 1012.6 15.1
2017-Jul-20 11:00S 38°15' E 060°19'1 0.1 1013.4 15.1
2017-Jul-20 06:00S 38°16' E 060°19'0 0.0 1015.8 15.1
2017-Jul-20 05:00S 38°16' E 060°19'2 1.5 1015.5 15.1
2017-Jul-20 04:00S 38°16' E 060°17'1 1.1 1015.3 15.0
2017-Jul-20 03:00S 38°17' E 060°19'2 1.9 1014.8 15.0
2017-Jul-20 02:00S 38°17' E 060°16'2 1.5 1014.3 15.1
2017-Jul-20 01:00S 38°17' E 060°14'0 0.0 1013.5 15.1
2017-Jul-19 23:00S 38°17' E 060°14'1 0.9 1012.8 15.2
2017-Jul-19 22:00S 38°17' E 060°13'3 1.0 1012.0 15.2
2017-Jul-19 19:00S 38°18' E 060°10'0 0.5 1010.0 15.2
2017-Jul-19 18:00S 38°18' E 060°09'2 1.5 1009.5 15.2
2017-Jul-19 17:00S 38°19' E 060°07'1 1.4 1009.0 15.2
2017-Jul-19 16:00S 38°19' E 060°05'1 0.8 1008.6 15.2
2017-Jul-19 15:00S 38°18' E 060°05'1 1.4 1008.9 15.3
2017-Jul-19 14:00S 38°18' E 060°03'10 5.0 1008.1 15.3
2017-Jul-19 12:00S 38°14' E 059°51'0 0.0 1008.3 15.3
2017-Jul-19 11:00S 38°14' E 059°51'0 0.0 1008.7 15.4
2017-Jul-19 10:00S 38°14' E 059°51'0 0.0 1009.2 15.4
2017-Jul-19 06:00S 38°14' E 059°51'0 0.0 1013.3 15.3
2017-Jul-19 05:00S 38°14' E 059°51'0 0.0 1013.7 15.3
2017-Jul-19 04:00S 38°14' E 059°51'0 0.5 1013.8 15.3
2017-Jul-19 03:00S 38°14' E 059°50'3 2.9 1013.7 15.3
2017-Jul-19 02:00S 38°14' E 059°47'0 0.0 1013.8 15.3
2017-Jul-19 01:00S 38°14' E 059°47'0 0.2 1013.8 15.3
2017-Jul-18 23:00S 38°14' E 059°46'0 0.0 1014.4 15.3
2017-Jul-18 22:00S 38°14' E 059°46'3 3.1 1014.9 15.3
2017-Jul-18 21:00S 38°13' E 059°43'0 0.0 1014.9 15.3
2017-Jul-18 19:00S 38°13' E 059°43'0 0.5 1014.9 15.3
2017-Jul-18 18:00S 38°13' E 059°42'1 0.8 1015.2 15.3
2017-Jul-18 17:00S 38°12' E 059°41'2 0.9 1015.4 15.3
2017-Jul-18 15:00S 38°13' E 059°40'1 0.8 1015.2 15.3
2017-Jul-18 14:00S 38°14' E 059°39'2 2.4 1015.0 15.3
2017-Jul-18 13:00S 38°14' E 059°36'4 3.8 1014.8 15.3
2017-Jul-18 12:00S 38°13' E 059°31'0 0.0 1014.4 15.3
2017-Jul-18 11:00S 38°13' E 059°31'6 5.7 1014.4 15.3
2017-Jul-18 10:00S 38°11' E 059°25'0 0.0 1013.9 15.3
2017-Jul-18 09:00S 38°11' E 059°25'0 0.2 1014.3 15.3
2017-Jul-18 06:00S 38°11' E 059°25'0 0.0 1015.7 15.2
2017-Jul-18 05:00S 38°11' E 059°25'2 2.2 1015.5 15.2
2017-Jul-18 04:00S 38°10' E 059°23'1 0.4 1015.1 15.2
2017-Jul-18 02:00S 38°09' E 059°22'1 0.8 1014.1 15.2
2017-Jul-18 01:00S 38°08' E 059°22'0 0.0 1014.1 15.2
2017-Jul-18 00:00S 38°08' E 059°22'0 0.0 1014.4 15.2
2017-Jul-17 23:00S 38°08' E 059°22'3 3.3 1014.0 15.2
2017-Jul-17 22:00S 38°08' E 059°17'0 0.0 1013.4 15.2
2017-Jul-17 18:00S 38°08' E 059°17'0 0.5 1011.7 15.2
2017-Jul-17 17:00S 38°08' E 059°18'0 0.5 1011.1 15.2
2017-Jul-17 16:00S 38°08' E 059°17'1 1.1 1011.2 15.2
2017-Jul-17 15:00S 38°08' E 059°16'0 0.0 1010.7 15.2
2017-Jul-17 14:00S 38°08' E 059°16'0 0.5 1009.7 15.2
2017-Jul-17 13:00S 38°08' E 059°16'2 1.5 1008.5 15.2
2017-Jul-17 12:00S 38°07' E 059°14'0 0.0 1007.8 15.2
2017-Jul-17 11:00S 38°07' E 059°14'0 0.0 1006.8 15.2
2017-Jul-17 10:00S 38°07' E 059°14'4 0.7 1006.6 15.2
2017-Jul-17 05:00S 38°04' E 059°11'0 0.0 1004.8 15.2
2017-Jul-17 03:00S 38°04' E 059°11'1 0.8 1005.1 15.2
2017-Jul-17 02:00S 38°05' E 059°11'1 0.9 1004.9 15.3
2017-Jul-17 01:00S 38°05' E 059°10'0 0.0 1005.0 15.3
2017-Jul-17 00:00S 38°05' E 059°10'1 1.1 1005.6 15.3
2017-Jul-16 23:00S 38°04' E 059°08'0 0.0 1007.2 15.3
2017-Jul-16 22:00S 38°04' E 059°08'0 0.0 1006.9 15.3
2017-Jul-16 21:00S 38°04' E 059°08'4 1.4 1007.1 15.3
2017-Jul-16 18:00S 38°01' E 059°05'3 3.3 1009.6 15.3
2017-Jul-16 17:00S 37°58' E 059°03'2 0.8 1011.0 15.3
2017-Jul-16 15:00S 37°57' E 059°02'2 1.8 1012.5 15.3
2017-Jul-16 14:00S 37°55' E 059°02'2 1.5 1013.7 15.3
2017-Jul-16 13:00S 37°54' E 059°01'0 0.5 1015.3 15.3
2017-Jul-16 12:00S 37°54' E 059°01'2 1.9 1015.5 15.3
2017-Jul-16 11:00S 37°52' E 059°01'4 0.8 1017.2 15.3
2017-Jul-16 06:00S 37°49' E 059°03'1 0.4 1023.4 15.3
2017-Jul-16 04:00S 37°49' E 059°02'1 0.6 1024.1 15.2
2017-Jul-16 03:00S 37°49' E 059°02'0 0.0 1024.1 15.2
2017-Jul-16 02:00S 37°49' E 059°02'0 0.5 1024.1 15.2
2017-Jul-16 01:00S 37°49' E 059°02'0 0.0 1024.2 15.2
2017-Jul-16 00:00S 37°49' E 059°02'1 0.9 1025.0 15.2
2017-Jul-15 23:00S 37°49' E 059°01'0 0.0 1025.5 15.2
2017-Jul-15 22:00S 37°49' E 059°01'0 0.0 1025.6 15.2
2017-Jul-15 21:00S 37°49' E 059°01'3 0.7 1025.8 15.2
2017-Jul-15 17:00S 37°46' E 058°59'1 0.9 1025.4 15.2
2017-Jul-15 16:00S 37°46' E 059°00'1 1.3 1025.0 15.3
2017-Jul-15 15:00S 37°45' E 058°59'0 0.5 1024.7 15.3
2017-Jul-15 14:00S 37°45' E 059°00'1 0.6 1024.0 15.3
2017-Jul-15 12:00S 37°46' E 059°01'4 3.7 1022.4 15.3
2017-Jul-15 11:00S 37°49' E 059°00'3 3.1 1021.4 15.3
2017-Jul-15 10:00S 37°46' E 059°01'4 1.1 1020.5 15.4
2017-Jul-15 06:00S 37°50' E 059°00'3 1.0 1017.7 15.3
2017-Jul-15 03:00S 37°51' E 058°56'0 0.5 1013.3 15.3
2017-Jul-15 02:00S 37°51' E 058°56'1 1.1 1012.9 15.3
2017-Jul-15 01:00S 37°50' E 058°55'2 2.0 1012.2 15.3
2017-Jul-15 00:00S 37°50' E 058°52'0 0.0 1012.2 15.3
2017-Jul-14 23:00S 37°50' E 058°52'0 0.0 1012.4 15.3
2017-Jul-14 22:00S 37°50' E 058°52'0 0.0 1012.5 15.3
2017-Jul-14 21:00S 37°50' E 058°52'2 0.8 1012.6 15.3
2017-Jul-14 19:00S 37°49' E 058°51'1 0.3 1012.4 15.3
2017-Jul-14 15:00S 37°50' E 058°51'1 1.2 1010.1 15.3
2017-Jul-14 14:00S 37°51' E 058°51'1 0.5 1008.8 15.3
2017-Jul-14 12:00S 37°51' E 058°52'7 7.1 1006.2 15.3
2017-Jul-14 11:00S 37°55' E 058°44'5 4.9 1004.2 15.3
2017-Jul-14 10:00S 37°52' E 058°50'5 1.2 1002.8 15.3
2017-Jul-14 06:00S 37°55' E 058°44'2 1.5 999.0 15.4
2017-Jul-14 05:00S 37°53' E 058°43'1 0.6 1000.0 15.3
2017-Jul-14 04:00S 37°53' E 058°43'1 0.9 1000.4 15.3
2017-Jul-14 03:00S 37°53' E 058°42'0 0.5 1001.0 15.3
2017-Jul-14 02:00S 37°53' E 058°43'3 2.6 1001.5 15.3
2017-Jul-14 01:00S 37°51' E 058°40'0 0.0 1002.3 15.3
2017-Jul-14 00:00S 37°51' E 058°40'0 0.2 1003.1 15.4
2017-Jul-13 22:00S 37°51' E 058°41'1 0.4 1004.6 15.4
2017-Jul-13 19:00S 37°50' E 058°40'0 0.0 1005.8 15.4
2017-Jul-13 18:00S 37°50' E 058°40'0 0.5 1006.2 15.4
2017-Jul-13 17:00S 37°50' E 058°40'0 0.5 1006.5 15.4
2017-Jul-13 16:00S 37°50' E 058°40'0 0.0 1006.8 15.4
2017-Jul-13 15:00S 37°50' E 058°40'0 0.0 1007.0 15.4
2017-Jul-13 14:00S 37°50' E 058°40'2 1.9 1007.1 15.5
2017-Jul-13 13:00S 37°51' E 058°38'0 0.0 1007.1 15.5
2017-Jul-13 12:00S 37°51' E 058°38'2 2.4 1007.3 15.5
2017-Jul-13 11:00S 37°50' E 058°35'2 2.4 1007.2 15.5
2017-Jul-13 10:00S 37°51' E 058°38'2 0.6 1007.0 15.6
2017-Jul-13 06:00S 37°50' E 058°35'0 0.5 1008.4 15.5
2017-Jul-13 05:00S 37°50' E 058°35'1 0.8 1007.8 15.5
2017-Jul-13 04:00S 37°51' E 058°34'1 0.8 1007.2 15.4
2017-Jul-13 03:00S 37°50' E 058°35'1 1.2 1006.2 15.4
2017-Jul-13 02:00S 37°52' E 058°35'0 0.0 1005.3 15.4
2017-Jul-13 01:00S 37°52' E 058°35'0 0.0 1004.4 15.4
2017-Jul-13 00:00S 37°52' E 058°35'1 1.1 1003.5 15.4
2017-Jul-12 23:00S 37°52' E 058°34'0 0.0 1002.9 15.4
2017-Jul-12 22:00S 37°52' E 058°34'6 6.1 1001.9 15.3
2017-Jul-12 21:00S 37°58' E 058°32'0 0.0 1001.2 15.3
2017-Jul-12 20:00S 37°58' E 058°32'0 0.0 1000.5 15.3
2017-Jul-12 18:00S 37°58' E 058°32'1 0.6 998.8 15.3
2017-Jul-12 17:00S 37°59' E 058°32'2 0.9 998.0 15.3
2017-Jul-12 15:00S 38°00' E 058°31'4 1.8 996.6 15.4
2017-Jul-12 13:00S 38°03' E 058°28'0 0.0 994.9 15.4
2017-Jul-12 12:00S 38°03' E 058°28'1 1.1 993.7 15.5
2017-Jul-12 11:00S 38°02' E 058°27'2 0.3 992.2 15.5
2017-Jul-12 06:00S 38°02' E 058°25'0 0.5 998.2 15.5
2017-Jul-12 05:00S 38°02' E 058°25'1 0.8 999.6 15.4
2017-Jul-12 04:00S 38°02' E 058°25'0 0.0 1000.8 15.4
2017-Jul-12 03:00S 38°02' E 058°25'1 0.4 1001.8 15.4
2017-Jul-12 01:00S 38°03' E 058°25'1 0.3 1003.7 15.4
2017-Jul-11 23:00S 38°04' E 058°25'1 0.8 1005.7 15.4
2017-Jul-11 22:00S 38°04' E 058°24'2 0.5 1006.5 15.4
2017-Jul-11 19:00S 38°05' E 058°22'0 0.0 1007.9 15.5
2017-Jul-11 18:00S 38°05' E 058°22'0 0.5 1008.1 15.5
2017-Jul-11 17:00S 38°05' E 058°22'0 0.5 1008.3 15.5
2017-Jul-11 16:00S 38°05' E 058°22'0 0.5 1008.5 15.5
2017-Jul-11 15:00S 38°05' E 058°22'1 0.9 1008.1 15.5
2017-Jul-11 14:00S 38°05' E 058°23'   1007.9 15.5

Dump ship's entire track history